sensor_id;sensor_type;location;lat;lon;timestamp;P1;durP1;ratioP1;P2;durP2;ratioP2
36773;SDS011;22730;51.980;5.934;2023-08-24T00:01:40;0.60;;;0.60;;
36773;SDS011;22730;51.980;5.934;2023-08-24T00:04:06;0.80;;;0.80;;
36773;SDS011;22730;51.980;5.934;2023-08-24T00:06:33;0.63;;;0.63;;
36773;SDS011;22730;51.980;5.934;2023-08-24T00:09:02;0.80;;;0.80;;
36773;SDS011;22730;51.980;5.934;2023-08-24T00:11:31;0.80;;;0.80;;
36773;SDS011;22730;51.980;5.934;2023-08-24T00:13:57;1.02;;;0.80;;
36773;SDS011;22730;51.980;5.934;2023-08-24T00:16:28;0.70;;;0.70;;
36773;SDS011;22730;51.980;5.934;2023-08-24T00:18:57;0.63;;;0.63;;
36773;SDS011;22730;51.980;5.934;2023-08-24T00:21:23;0.60;;;0.60;;
36773;SDS011;22730;51.980;5.934;2023-08-24T00:23:52;0.88;;;0.70;;
36773;SDS011;22730;51.980;5.934;2023-08-24T00:26:18;0.77;;;0.77;;
36773;SDS011;22730;51.980;5.934;2023-08-24T00:28:46;0.70;;;0.57;;
36773;SDS011;22730;51.980;5.934;2023-08-24T00:31:17;0.55;;;0.55;;
36773;SDS011;22730;51.980;5.934;2023-08-24T00:33:43;0.60;;;0.60;;
36773;SDS011;22730;51.980;5.934;2023-08-24T00:36:09;0.70;;;0.70;;
36773;SDS011;22730;51.980;5.934;2023-08-24T00:38:37;0.80;;;0.80;;
36773;SDS011;22730;51.980;5.934;2023-08-24T00:41:04;0.65;;;0.65;;
36773;SDS011;22730;51.980;5.934;2023-08-24T00:43:30;0.50;;;0.50;;
36773;SDS011;22730;51.980;5.934;2023-08-24T00:45:56;0.50;;;0.50;;
36773;SDS011;22730;51.980;5.934;2023-08-24T00:48:24;0.63;;;0.63;;
36773;SDS011;22730;51.980;5.934;2023-08-24T00:50:54;0.90;;;0.77;;
36773;SDS011;22730;51.980;5.934;2023-08-24T00:53:20;0.95;;;0.82;;
36773;SDS011;22730;51.980;5.934;2023-08-24T00:55:52;0.88;;;0.82;;
36773;SDS011;22730;51.980;5.934;2023-08-24T00:58:19;2.05;;;1.08;;
36773;SDS011;22730;51.980;5.934;2023-08-24T01:00:57;2.10;;;0.95;;
36773;SDS011;22730;51.980;5.934;2023-08-24T01:03:25;0.60;;;0.60;;
36773;SDS011;22730;51.980;5.934;2023-08-24T01:05:51;0.55;;;0.55;;
36773;SDS011;22730;51.980;5.934;2023-08-24T01:08:18;0.77;;;0.77;;
36773;SDS011;22730;51.980;5.934;2023-08-24T01:10:52;0.70;;;0.70;;
36773;SDS011;22730;51.980;5.934;2023-08-24T01:13:38;0.80;;;0.80;;
36773;SDS011;22730;51.980;5.934;2023-08-24T01:16:22;0.73;;;0.70;;
36773;SDS011;22730;51.980;5.934;2023-08-24T01:18:56;0.70;;;0.70;;
36773;SDS011;22730;51.980;5.934;2023-08-24T01:24:04;0.70;;;0.70;;
36773;SDS011;22730;51.980;5.934;2023-08-24T01:26:37;16.92;;;1.52;;
36773;SDS011;22730;51.980;5.934;2023-08-24T01:29:04;1.00;;;0.88;;
36773;SDS011;22730;51.980;5.934;2023-08-24T01:31:30;0.77;;;0.70;;
36773;SDS011;22730;51.980;5.934;2023-08-24T01:33:56;2.03;;;1.00;;
36773;SDS011;22730;51.980;5.934;2023-08-24T01:36:22;0.95;;;0.77;;
36773;SDS011;22730;51.980;5.934;2023-08-24T01:39:11;0.95;;;0.95;;
36773;SDS011;22730;51.980;5.934;2023-08-24T01:41:43;0.77;;;0.70;;
36773;SDS011;22730;51.980;5.934;2023-08-24T01:46:44;0.85;;;0.85;;
36773;SDS011;22730;51.980;5.934;2023-08-24T01:49:13;1.60;;;0.63;;
36773;SDS011;22730;51.980;5.934;2023-08-24T01:51:42;1.95;;;0.80;;
36773;SDS011;22730;51.980;5.934;2023-08-24T01:54:08;3.95;;;0.75;;
36773;SDS011;22730;51.980;5.934;2023-08-24T01:56:34;1.30;;;0.77;;
36773;SDS011;22730;51.980;5.934;2023-08-24T01:59:00;0.70;;;0.70;;
36773;SDS011;22730;51.980;5.934;2023-08-24T02:01:26;0.70;;;0.70;;
36773;SDS011;22730;51.980;5.934;2023-08-24T02:03:51;1.02;;;0.88;;
36773;SDS011;22730;51.980;5.934;2023-08-24T02:06:17;0.80;;;0.80;;
36773;SDS011;22730;51.980;5.934;2023-08-24T02:08:43;1.08;;;1.00;;
36773;SDS011;22730;51.980;5.934;2023-08-24T02:11:12;1.00;;;1.00;;
36773;SDS011;22730;51.980;5.934;2023-08-24T02:13:38;0.88;;;0.80;;
36773;SDS011;22730;51.980;5.934;2023-08-24T02:16:05;0.80;;;0.73;;
36773;SDS011;22730;51.980;5.934;2023-08-24T02:18:34;0.70;;;0.70;;
36773;SDS011;22730;51.980;5.934;2023-08-24T02:21:01;0.80;;;0.80;;
36773;SDS011;22730;51.980;5.934;2023-08-24T02:23:35;1.08;;;0.98;;
36773;SDS011;22730;51.980;5.934;2023-08-24T02:26:01;0.82;;;0.82;;
36773;SDS011;22730;51.980;5.934;2023-08-24T02:28:27;1.58;;;0.82;;
36773;SDS011;22730;51.980;5.934;2023-08-24T02:30:53;0.98;;;0.90;;
36773;SDS011;22730;51.980;5.934;2023-08-24T02:33:19;2.92;;;0.93;;
36773;SDS011;22730;51.980;5.934;2023-08-24T02:35:49;0.95;;;0.95;;
36773;SDS011;22730;51.980;5.934;2023-08-24T02:38:15;1.02;;;0.90;;
36773;SDS011;22730;51.980;5.934;2023-08-24T02:40:40;1.83;;;1.20;;
36773;SDS011;22730;51.980;5.934;2023-08-24T02:43:06;0.60;;;0.60;;
36773;SDS011;22730;51.980;5.934;2023-08-24T02:45:32;0.70;;;0.70;;
36773;SDS011;22730;51.980;5.934;2023-08-24T02:47:58;0.77;;;0.77;;
36773;SDS011;22730;51.980;5.934;2023-08-24T02:50:26;1.52;;;0.90;;
36773;SDS011;22730;51.980;5.934;2023-08-24T02:52:52;1.23;;;1.23;;
36773;SDS011;22730;51.980;5.934;2023-08-24T02:55:20;1.63;;;1.52;;
36773;SDS011;22730;51.980;5.934;2023-08-24T02:57:46;1.85;;;1.75;;
36773;SDS011;22730;51.980;5.934;2023-08-24T03:00:12;1.42;;;1.33;;
36773;SDS011;22730;51.980;5.934;2023-08-24T03:02:43;1.02;;;1.00;;
36773;SDS011;22730;51.980;5.934;2023-08-24T03:05:09;1.30;;;0.88;;
36773;SDS011;22730;51.980;5.934;2023-08-24T03:07:35;0.90;;;0.90;;
36773;SDS011;22730;51.980;5.934;2023-08-24T03:10:01;0.98;;;0.98;;
36773;SDS011;22730;51.980;5.934;2023-08-24T03:12:28;2.63;;;2.15;;
36773;SDS011;22730;51.980;5.934;2023-08-24T03:14:54;2.35;;;1.92;;
36773;SDS011;22730;51.980;5.934;2023-08-24T03:17:21;2.88;;;2.40;;
36773;SDS011;22730;51.980;5.934;2023-08-24T03:19:47;2.30;;;1.60;;
36773;SDS011;22730;51.980;5.934;2023-08-24T03:22:13;2.30;;;2.10;;
36773;SDS011;22730;51.980;5.934;2023-08-24T03:24:41;1.05;;;1.05;;
36773;SDS011;22730;51.980;5.934;2023-08-24T03:27:07;1.73;;;1.42;;
36773;SDS011;22730;51.980;5.934;2023-08-24T03:29:33;1.27;;;1.17;;
36773;SDS011;22730;51.980;5.934;2023-08-24T03:31:59;1.10;;;1.00;;
36773;SDS011;22730;51.980;5.934;2023-08-24T03:34:25;3.25;;;1.40;;
36773;SDS011;22730;51.980;5.934;2023-08-24T03:36:52;0.93;;;0.80;;
36773;SDS011;22730;51.980;5.934;2023-08-24T03:39:18;1.38;;;1.27;;
36773;SDS011;22730;51.980;5.934;2023-08-24T03:41:44;1.92;;;1.50;;
36773;SDS011;22730;51.980;5.934;2023-08-24T03:44:10;1.50;;;1.40;;
36773;SDS011;22730;51.980;5.934;2023-08-24T03:46:36;2.00;;;1.50;;
36773;SDS011;22730;51.980;5.934;2023-08-24T03:49:02;2.60;;;2.50;;
36773;SDS011;22730;51.980;5.934;2023-08-24T03:51:27;3.20;;;2.88;;
36773;SDS011;22730;51.980;5.934;2023-08-24T03:53:56;3.67;;;2.33;;
36773;SDS011;22730;51.980;5.934;2023-08-24T03:56:22;2.75;;;1.95;;
36773;SDS011;22730;51.980;5.934;2023-08-24T03:58:48;2.22;;;2.03;;
36773;SDS011;22730;51.980;5.934;2023-08-24T04:01:16;3.63;;;2.20;;
36773;SDS011;22730;51.980;5.934;2023-08-24T04:03:42;2.03;;;1.90;;
36773;SDS011;22730;51.980;5.934;2023-08-24T04:06:10;1.67;;;1.58;;
36773;SDS011;22730;51.980;5.934;2023-08-24T04:08:38;1.17;;;1.17;;
36773;SDS011;22730;51.980;5.934;2023-08-24T04:11:04;1.20;;;1.10;;
36773;SDS011;22730;51.980;5.934;2023-08-24T04:13:32;1.60;;;1.50;;
36773;SDS011;22730;51.980;5.934;2023-08-24T04:15:58;1.80;;;1.70;;
36773;SDS011;22730;51.980;5.934;2023-08-24T04:18:24;1.52;;;1.48;;
36773;SDS011;22730;51.980;5.934;2023-08-24T04:20:51;1.63;;;1.52;;
36773;SDS011;22730;51.980;5.934;2023-08-24T04:23:23;1.67;;;1.58;;
36773;SDS011;22730;51.980;5.934;2023-08-24T04:25:52;2.88;;;1.83;;
36773;SDS011;22730;51.980;5.934;2023-08-24T04:28:19;9.75;;;1.60;;
36773;SDS011;22730;51.980;5.934;2023-08-24T04:30:52;1.30;;;1.17;;
36773;SDS011;22730;51.980;5.934;2023-08-24T04:33:19;2.10;;;2.00;;
36773;SDS011;22730;51.980;5.934;2023-08-24T04:35:48;1.13;;;1.13;;
36773;SDS011;22730;51.980;5.934;2023-08-24T04:38:17;3.80;;;1.33;;
36773;SDS011;22730;51.980;5.934;2023-08-24T04:40:52;1.20;;;1.10;;
36773;SDS011;22730;51.980;5.934;2023-08-24T04:43:19;4.22;;;2.22;;
36773;SDS011;22730;51.980;5.934;2023-08-24T04:45:50;2.50;;;2.25;;
36773;SDS011;22730;51.980;5.934;2023-08-24T04:48:18;2.50;;;2.20;;
36773;SDS011;22730;51.980;5.934;2023-08-24T04:50:45;1.90;;;1.80;;
36773;SDS011;22730;51.980;5.934;2023-08-24T04:53:15;3.53;;;1.92;;
36773;SDS011;22730;51.980;5.934;2023-08-24T04:55:42;1.85;;;1.50;;
36773;SDS011;22730;51.980;5.934;2023-08-24T04:58:11;1.58;;;1.45;;
36773;SDS011;22730;51.980;5.934;2023-08-24T05:00:41;2.47;;;2.05;;
36773;SDS011;22730;51.980;5.934;2023-08-24T05:03:10;3.53;;;1.90;;
36773;SDS011;22730;51.980;5.934;2023-08-24T05:08:07;2.30;;;2.10;;
36773;SDS011;22730;51.980;5.934;2023-08-24T05:10:36;2.53;;;2.10;;
36773;SDS011;22730;51.980;5.934;2023-08-24T05:13:02;2.58;;;2.13;;
36773;SDS011;22730;51.980;5.934;2023-08-24T05:15:28;1.83;;;1.73;;
36773;SDS011;22730;51.980;5.934;2023-08-24T05:17:56;1.85;;;1.70;;
36773;SDS011;22730;51.980;5.934;2023-08-24T05:20:27;1.80;;;1.70;;
36773;SDS011;22730;51.980;5.934;2023-08-24T05:22:54;2.50;;;2.30;;
36773;SDS011;22730;51.980;5.934;2023-08-24T05:25:25;2.15;;;1.95;;
36773;SDS011;22730;51.980;5.934;2023-08-24T05:27:51;2.05;;;1.95;;
36773;SDS011;22730;51.980;5.934;2023-08-24T05:30:17;2.15;;;1.95;;
36773;SDS011;22730;51.980;5.934;2023-08-24T05:32:43;3.50;;;3.17;;
36773;SDS011;22730;51.980;5.934;2023-08-24T05:35:09;2.30;;;2.10;;
36773;SDS011;22730;51.980;5.934;2023-08-24T05:37:35;1.92;;;1.83;;
36773;SDS011;22730;51.980;5.934;2023-08-24T05:40:01;1.83;;;1.73;;
36773;SDS011;22730;51.980;5.934;2023-08-24T05:42:28;1.92;;;1.83;;
36773;SDS011;22730;51.980;5.934;2023-08-24T05:44:54;2.50;;;2.15;;
36773;SDS011;22730;51.980;5.934;2023-08-24T05:47:20;2.60;;;2.40;;
36773;SDS011;22730;51.980;5.934;2023-08-24T05:49:46;2.80;;;2.60;;
36773;SDS011;22730;51.980;5.934;2023-08-24T05:52:12;2.10;;;2.00;;
36773;SDS011;22730;51.980;5.934;2023-08-24T05:54:37;2.00;;;1.90;;
36773;SDS011;22730;51.980;5.934;2023-08-24T05:57:06;4.05;;;2.70;;
36773;SDS011;22730;51.980;5.934;2023-08-24T05:59:32;2.00;;;1.90;;
36773;SDS011;22730;51.980;5.934;2023-08-24T06:02:02;3.60;;;2.60;;
36773;SDS011;22730;51.980;5.934;2023-08-24T06:04:28;1.98;;;1.77;;
36773;SDS011;22730;51.980;5.934;2023-08-24T06:06:54;3.20;;;2.92;;
36773;SDS011;22730;51.980;5.934;2023-08-24T06:09:33;5.90;;;2.58;;
36773;SDS011;22730;51.980;5.934;2023-08-24T06:11:59;3.40;;;3.10;;
36773;SDS011;22730;51.980;5.934;2023-08-24T06:14:25;4.35;;;3.70;;
36773;SDS011;22730;51.980;5.934;2023-08-24T06:16:51;4.38;;;3.97;;
36773;SDS011;22730;51.980;5.934;2023-08-24T06:19:18;4.68;;;4.32;;
36773;SDS011;22730;51.980;5.934;2023-08-24T06:21:44;5.15;;;3.95;;
36773;SDS011;22730;51.980;5.934;2023-08-24T06:24:10;5.13;;;4.63;;
36773;SDS011;22730;51.980;5.934;2023-08-24T06:26:36;4.05;;;3.65;;
36773;SDS011;22730;51.980;5.934;2023-08-24T06:29:02;4.90;;;4.32;;
36773;SDS011;22730;51.980;5.934;2023-08-24T06:31:28;3.30;;;3.03;;
36773;SDS011;22730;51.980;5.934;2023-08-24T06:33:56;3.42;;;3.22;;
36773;SDS011;22730;51.980;5.934;2023-08-24T06:36:22;2.63;;;2.28;;
36773;SDS011;22730;51.980;5.934;2023-08-24T06:38:48;2.70;;;2.50;;
36773;SDS011;22730;51.980;5.934;2023-08-24T06:41:13;4.10;;;3.80;;
36773;SDS011;22730;51.980;5.934;2023-08-24T06:43:39;4.50;;;4.15;;
36773;SDS011;22730;51.980;5.934;2023-08-24T06:46:05;5.13;;;4.38;;
36773;SDS011;22730;51.980;5.934;2023-08-24T06:48:33;5.05;;;4.65;;
36773;SDS011;22730;51.980;5.934;2023-08-24T06:51:00;4.30;;;3.90;;
36773;SDS011;22730;51.980;5.934;2023-08-24T06:53:25;4.90;;;4.50;;
36773;SDS011;22730;51.980;5.934;2023-08-24T06:55:57;4.85;;;4.35;;
36773;SDS011;22730;51.980;5.934;2023-08-24T06:58:23;2.85;;;2.67;;
36773;SDS011;22730;51.980;5.934;2023-08-24T07:00:49;2.67;;;2.47;;
36773;SDS011;22730;51.980;5.934;2023-08-24T07:03:19;7.30;;;4.95;;
36773;SDS011;22730;51.980;5.934;2023-08-24T07:05:45;4.70;;;4.10;;
36773;SDS011;22730;51.980;5.934;2023-08-24T07:08:13;3.80;;;3.42;;
36773;SDS011;22730;51.980;5.934;2023-08-24T07:10:39;4.35;;;3.85;;
36773;SDS011;22730;51.980;5.934;2023-08-24T07:13:07;3.63;;;2.70;;
36773;SDS011;22730;51.980;5.934;2023-08-24T07:15:33;2.38;;;2.22;;
36773;SDS011;22730;51.980;5.934;2023-08-24T07:18:02;2.88;;;2.67;;
36773;SDS011;22730;51.980;5.934;2023-08-24T07:20:28;7.88;;;4.40;;
36773;SDS011;22730;51.980;5.934;2023-08-24T07:22:54;6.65;;;6.00;;
36773;SDS011;22730;51.980;5.934;2023-08-24T07:25:20;6.70;;;6.07;;
36773;SDS011;22730;51.980;5.934;2023-08-24T07:27:46;6.20;;;5.57;;
36773;SDS011;22730;51.980;5.934;2023-08-24T07:30:12;4.70;;;4.30;;
36773;SDS011;22730;51.980;5.934;2023-08-24T07:32:38;4.82;;;3.97;;
36773;SDS011;22730;51.980;5.934;2023-08-24T07:35:06;3.92;;;3.63;;
36773;SDS011;22730;51.980;5.934;2023-08-24T07:37:32;5.72;;;4.75;;
36773;SDS011;22730;51.980;5.934;2023-08-24T07:39:58;5.30;;;4.90;;
36773;SDS011;22730;51.980;5.934;2023-08-24T07:42:24;5.70;;;5.20;;
36773;SDS011;22730;51.980;5.934;2023-08-24T07:44:50;5.40;;;4.95;;
36773;SDS011;22730;51.980;5.934;2023-08-24T07:47:16;8.18;;;7.22;;
36773;SDS011;22730;51.980;5.934;2023-08-24T07:49:42;5.57;;;5.13;;
36773;SDS011;22730;51.980;5.934;2023-08-24T07:52:11;5.15;;;3.60;;
36773;SDS011;22730;51.980;5.934;2023-08-24T07:54:47;2.90;;;2.70;;
36773;SDS011;22730;51.980;5.934;2023-08-24T07:57:13;3.40;;;3.10;;
36773;SDS011;22730;51.980;5.934;2023-08-24T07:59:38;3.50;;;3.20;;
36773;SDS011;22730;51.980;5.934;2023-08-24T08:02:04;3.03;;;2.50;;
36773;SDS011;22730;51.980;5.934;2023-08-24T08:04:31;5.78;;;4.75;;
36773;SDS011;22730;51.980;5.934;2023-08-24T08:06:59;3.67;;;3.40;;
36773;SDS011;22730;51.980;5.934;2023-08-24T08:09:24;5.88;;;5.43;;
36773;SDS011;22730;51.980;5.934;2023-08-24T08:11:50;3.38;;;3.17;;
36773;SDS011;22730;51.980;5.934;2023-08-24T08:14:16;4.78;;;4.38;;
36773;SDS011;22730;51.980;5.934;2023-08-24T08:16:42;3.40;;;3.20;;
36773;SDS011;22730;51.980;5.934;2023-08-24T08:19:08;4.28;;;3.88;;
36773;SDS011;22730;51.980;5.934;2023-08-24T08:21:34;6.25;;;4.32;;
36773;SDS011;22730;51.980;5.934;2023-08-24T08:24:00;5.07;;;4.57;;
36773;SDS011;22730;51.980;5.934;2023-08-24T08:26:26;5.15;;;4.72;;
36773;SDS011;22730;51.980;5.934;2023-08-24T08:28:52;4.97;;;4.57;;
36773;SDS011;22730;51.980;5.934;2023-08-24T08:31:18;6.10;;;5.60;;
36773;SDS011;22730;51.980;5.934;2023-08-24T08:33:43;3.90;;;3.60;;
36773;SDS011;22730;51.980;5.934;2023-08-24T08:36:09;4.72;;;4.18;;
36773;SDS011;22730;51.980;5.934;2023-08-24T08:38:35;6.38;;;5.82;;
36773;SDS011;22730;51.980;5.934;2023-08-24T08:41:02;5.43;;;4.93;;
36773;SDS011;22730;51.980;5.934;2023-08-24T08:43:29;5.38;;;4.70;;
36773;SDS011;22730;51.980;5.934;2023-08-24T08:45:55;5.45;;;4.90;;
36773;SDS011;22730;51.980;5.934;2023-08-24T08:48:22;5.00;;;4.60;;
36773;SDS011;22730;51.980;5.934;2023-08-24T08:50:49;5.43;;;4.93;;
36773;SDS011;22730;51.980;5.934;2023-08-24T08:53:16;5.72;;;5.22;;
36773;SDS011;22730;51.980;5.934;2023-08-24T08:55:44;4.82;;;4.15;;
36773;SDS011;22730;51.980;5.934;2023-08-24T08:58:10;6.40;;;4.10;;
36773;SDS011;22730;51.980;5.934;2023-08-24T09:00:36;5.00;;;4.45;;
36773;SDS011;22730;51.980;5.934;2023-08-24T09:03:02;7.30;;;6.35;;
36773;SDS011;22730;51.980;5.934;2023-08-24T09:05:30;4.72;;;4.32;;
36773;SDS011;22730;51.980;5.934;2023-08-24T09:07:57;4.93;;;4.43;;
36773;SDS011;22730;51.980;5.934;2023-08-24T09:10:24;6.38;;;5.80;;
36773;SDS011;22730;51.980;5.934;2023-08-24T09:12:50;6.10;;;4.90;;
36773;SDS011;22730;51.980;5.934;2023-08-24T09:15:26;8.65;;;6.32;;
36773;SDS011;22730;51.980;5.934;2023-08-24T09:17:53;7.10;;;5.60;;
36773;SDS011;22730;51.980;5.934;2023-08-24T09:20:22;7.13;;;5.20;;
36773;SDS011;22730;51.980;5.934;2023-08-24T09:22:48;4.10;;;3.80;;
36773;SDS011;22730;51.980;5.934;2023-08-24T09:25:14;4.28;;;3.10;;
36773;SDS011;22730;51.980;5.934;2023-08-24T09:27:39;6.53;;;4.03;;
36773;SDS011;22730;51.980;5.934;2023-08-24T09:30:06;8.13;;;5.72;;
36773;SDS011;22730;51.980;5.934;2023-08-24T09:32:33;6.25;;;5.72;;
36773;SDS011;22730;51.980;5.934;2023-08-24T09:35:08;7.88;;;6.30;;
36773;SDS011;22730;51.980;5.934;2023-08-24T09:37:35;7.43;;;6.22;;
36773;SDS011;22730;51.980;5.934;2023-08-24T09:40:05;9.77;;;7.45;;
36773;SDS011;22730;51.980;5.934;2023-08-24T09:42:41;8.63;;;7.43;;
36773;SDS011;22730;51.980;5.934;2023-08-24T09:45:11;6.72;;;6.13;;
36773;SDS011;22730;51.980;5.934;2023-08-24T09:47:37;6.88;;;6.18;;
36773;SDS011;22730;51.980;5.934;2023-08-24T09:50:04;6.60;;;5.85;;
36773;SDS011;22730;51.980;5.934;2023-08-24T09:52:33;7.45;;;5.85;;
36773;SDS011;22730;51.980;5.934;2023-08-24T09:55:01;7.80;;;6.95;;
36773;SDS011;22730;51.980;5.934;2023-08-24T09:57:41;5.25;;;4.75;;
36773;SDS011;22730;51.980;5.934;2023-08-24T10:00:08;7.20;;;6.03;;
36773;SDS011;22730;51.980;5.934;2023-08-24T10:02:41;4.80;;;4.22;;
36773;SDS011;22730;51.980;5.934;2023-08-24T10:05:16;7.30;;;4.05;;
36773;SDS011;22730;51.980;5.934;2023-08-24T10:07:52;6.05;;;5.55;;
36773;SDS011;22730;51.980;5.934;2023-08-24T10:10:21;6.55;;;5.43;;
36773;SDS011;22730;51.980;5.934;2023-08-24T10:12:53;5.20;;;4.70;;
36773;SDS011;22730;51.980;5.934;2023-08-24T10:15:24;4.78;;;3.90;;
36773;SDS011;22730;51.980;5.934;2023-08-24T10:17:51;4.68;;;4.25;;
36773;SDS011;22730;51.980;5.934;2023-08-24T10:20:19;5.00;;;4.60;;
36773;SDS011;22730;51.980;5.934;2023-08-24T10:22:46;3.95;;;3.65;;
36773;SDS011;22730;51.980;5.934;2023-08-24T10:25:13;4.53;;;4.13;;
36773;SDS011;22730;51.980;5.934;2023-08-24T10:27:39;3.97;;;3.60;;
36773;SDS011;22730;51.980;5.934;2023-08-24T10:30:12;4.07;;;3.78;;
36773;SDS011;22730;51.980;5.934;2023-08-24T10:32:39;5.18;;;4.28;;
36773;SDS011;22730;51.980;5.934;2023-08-24T10:35:07;5.25;;;4.22;;
36773;SDS011;22730;51.980;5.934;2023-08-24T10:37:33;6.57;;;5.28;;
36773;SDS011;22730;51.980;5.934;2023-08-24T10:39:59;9.05;;;4.68;;
36773;SDS011;22730;51.980;5.934;2023-08-24T10:42:26;5.93;;;4.95;;
36773;SDS011;22730;51.980;5.934;2023-08-24T10:44:52;6.57;;;5.90;;
36773;SDS011;22730;51.980;5.934;2023-08-24T10:47:22;6.45;;;5.68;;
36773;SDS011;22730;51.980;5.934;2023-08-24T10:52:22;4.65;;;4.25;;
36773;SDS011;22730;51.980;5.934;2023-08-24T10:54:52;4.25;;;3.95;;
36773;SDS011;22730;51.980;5.934;2023-08-24T10:57:19;4.50;;;4.20;;
36773;SDS011;22730;51.980;5.934;2023-08-24T10:59:57;4.32;;;4.03;;
36773;SDS011;22730;51.980;5.934;2023-08-24T11:07:49;4.80;;;4.25;;
36773;SDS011;22730;51.980;5.934;2023-08-24T11:10:22;3.75;;;3.45;;
36773;SDS011;22730;51.980;5.934;2023-08-24T11:15:31;3.60;;;3.30;;
36773;SDS011;22730;51.980;5.934;2023-08-24T11:20:54;4.22;;;3.00;;
36773;SDS011;22730;51.980;5.934;2023-08-24T11:23:29;3.95;;;3.50;;
36773;SDS011;22730;51.980;5.934;2023-08-24T11:25:56;3.97;;;3.63;;
36773;SDS011;22730;51.980;5.934;2023-08-24T11:28:24;5.00;;;4.50;;
36773;SDS011;22730;51.980;5.934;2023-08-24T11:30:52;4.95;;;3.75;;
36773;SDS011;22730;51.980;5.934;2023-08-24T11:33:31;6.35;;;4.22;;
36773;SDS011;22730;51.980;5.934;2023-08-24T11:35:59;5.15;;;4.40;;
36773;SDS011;22730;51.980;5.934;2023-08-24T11:38:37;3.85;;;3.30;;
36773;SDS011;22730;51.980;5.934;2023-08-24T11:41:13;6.18;;;3.45;;
36773;SDS011;22730;51.980;5.934;2023-08-24T11:43:39;7.00;;;4.43;;
36773;SDS011;22730;51.980;5.934;2023-08-24T11:46:06;4.60;;;4.13;;
36773;SDS011;22730;51.980;5.934;2023-08-24T11:48:32;5.13;;;4.63;;
36773;SDS011;22730;51.980;5.934;2023-08-24T11:50:58;6.75;;;4.78;;
36773;SDS011;22730;51.980;5.934;2023-08-24T11:53:24;5.50;;;4.60;;
36773;SDS011;22730;51.980;5.934;2023-08-24T11:55:54;5.90;;;5.30;;
36773;SDS011;22730;51.980;5.934;2023-08-24T11:58:20;5.10;;;4.47;;
36773;SDS011;22730;51.980;5.934;2023-08-24T12:00:46;4.15;;;3.80;;
36773;SDS011;22730;51.980;5.934;2023-08-24T12:03:12;5.78;;;4.53;;
36773;SDS011;22730;51.980;5.934;2023-08-24T12:05:39;5.45;;;4.68;;
36773;SDS011;22730;51.980;5.934;2023-08-24T12:08:05;5.25;;;4.75;;
36773;SDS011;22730;51.980;5.934;2023-08-24T12:10:31;6.13;;;4.43;;
36773;SDS011;22730;51.980;5.934;2023-08-24T12:13:03;4.25;;;3.85;;
36773;SDS011;22730;51.980;5.934;2023-08-24T12:15:36;5.18;;;4.68;;
36773;SDS011;22730;51.980;5.934;2023-08-24T12:18:12;4.13;;;3.72;;
36773;SDS011;22730;51.980;5.934;2023-08-24T12:20:42;4.32;;;3.60;;
36773;SDS011;22730;51.980;5.934;2023-08-24T12:23:09;5.03;;;4.00;;
36773;SDS011;22730;51.980;5.934;2023-08-24T12:25:41;5.82;;;4.90;;
36773;SDS011;22730;51.980;5.934;2023-08-24T12:28:11;6.32;;;3.88;;
36773;SDS011;22730;51.980;5.934;2023-08-24T12:30:49;4.65;;;3.78;;
36773;SDS011;22730;51.980;5.934;2023-08-24T12:33:23;4.65;;;4.03;;
36773;SDS011;22730;51.980;5.934;2023-08-24T12:35:50;5.30;;;4.68;;
36773;SDS011;22730;51.980;5.934;2023-08-24T12:38:16;4.63;;;4.18;;
36773;SDS011;22730;51.980;5.934;2023-08-24T12:40:43;4.80;;;4.18;;
36773;SDS011;22730;51.980;5.934;2023-08-24T12:43:09;7.50;;;4.82;;
36773;SDS011;22730;51.980;5.934;2023-08-24T12:45:34;4.95;;;3.92;;
36773;SDS011;22730;51.980;5.934;2023-08-24T12:48:03;3.63;;;3.33;;
36773;SDS011;22730;51.980;5.934;2023-08-24T12:50:29;2.80;;;2.63;;
36773;SDS011;22730;51.980;5.934;2023-08-24T12:52:55;3.67;;;2.60;;
36773;SDS011;22730;51.980;5.934;2023-08-24T12:55:24;4.07;;;3.38;;
36773;SDS011;22730;51.980;5.934;2023-08-24T12:57:51;3.90;;;3.58;;
36773;SDS011;22730;51.980;5.934;2023-08-24T13:00:18;4.97;;;3.53;;
36773;SDS011;22730;51.980;5.934;2023-08-24T13:02:44;3.53;;;3.33;;
36773;SDS011;22730;51.980;5.934;2023-08-24T13:05:09;4.43;;;4.03;;
36773;SDS011;22730;51.980;5.934;2023-08-24T13:07:36;6.47;;;4.15;;
36773;SDS011;22730;51.980;5.934;2023-08-24T13:10:02;4.47;;;3.83;;
36773;SDS011;22730;51.980;5.934;2023-08-24T13:12:29;3.80;;;3.40;;
36773;SDS011;22730;51.980;5.934;2023-08-24T13:14:54;3.45;;;3.20;;
36773;SDS011;22730;51.980;5.934;2023-08-24T13:17:20;4.22;;;3.88;;
36773;SDS011;22730;51.980;5.934;2023-08-24T13:19:46;8.27;;;4.80;;
36773;SDS011;22730;51.980;5.934;2023-08-24T13:22:14;6.35;;;5.10;;
36773;SDS011;22730;51.980;5.934;2023-08-24T13:24:40;4.80;;;4.32;;
36773;SDS011;22730;51.980;5.934;2023-08-24T13:27:08;6.80;;;4.65;;
36773;SDS011;22730;51.980;5.934;2023-08-24T13:29:38;7.25;;;5.75;;
36773;SDS011;22730;51.980;5.934;2023-08-24T13:32:07;5.03;;;4.53;;
36773;SDS011;22730;51.980;5.934;2023-08-24T13:34:33;5.85;;;5.22;;
36773;SDS011;22730;51.980;5.934;2023-08-24T13:36:59;6.65;;;4.20;;
36773;SDS011;22730;51.980;5.934;2023-08-24T13:39:25;7.20;;;5.70;;
36773;SDS011;22730;51.980;5.934;2023-08-24T13:41:55;7.20;;;5.05;;
36773;SDS011;22730;51.980;5.934;2023-08-24T13:44:21;6.85;;;5.15;;
36773;SDS011;22730;51.980;5.934;2023-08-24T13:46:48;5.35;;;4.85;;
36773;SDS011;22730;51.980;5.934;2023-08-24T13:49:13;6.97;;;5.25;;
36773;SDS011;22730;51.980;5.934;2023-08-24T13:51:39;5.30;;;4.80;;
36773;SDS011;22730;51.980;5.934;2023-08-24T13:54:14;5.78;;;4.95;;
36773;SDS011;22730;51.980;5.934;2023-08-24T13:56:44;7.47;;;4.53;;
36773;SDS011;22730;51.980;5.934;2023-08-24T13:59:14;4.85;;;3.55;;
36773;SDS011;22730;51.980;5.934;2023-08-24T14:01:40;4.55;;;4.15;;
36773;SDS011;22730;51.980;5.934;2023-08-24T14:04:07;5.28;;;3.80;;
36773;SDS011;22730;51.980;5.934;2023-08-24T14:06:33;3.53;;;3.22;;
36773;SDS011;22730;51.980;5.934;2023-08-24T14:09:02;4.30;;;3.90;;
36773;SDS011;22730;51.980;5.934;2023-08-24T14:11:28;4.13;;;3.72;;
36773;SDS011;22730;51.980;5.934;2023-08-24T14:13:54;3.80;;;3.50;;
36773;SDS011;22730;51.980;5.934;2023-08-24T14:16:20;3.83;;;3.53;;
36773;SDS011;22730;51.980;5.934;2023-08-24T14:18:46;4.05;;;3.58;;
36773;SDS011;22730;51.980;5.934;2023-08-24T14:21:13;4.70;;;4.28;;
36773;SDS011;22730;51.980;5.934;2023-08-24T14:23:40;4.25;;;3.85;;
36773;SDS011;22730;51.980;5.934;2023-08-24T14:26:06;4.05;;;3.65;;
36773;SDS011;22730;51.980;5.934;2023-08-24T14:31:21;3.55;;;3.25;;
36773;SDS011;22730;51.980;5.934;2023-08-24T14:33:47;5.40;;;4.47;;
36773;SDS011;22730;51.980;5.934;2023-08-24T14:36:13;4.72;;;4.32;;
36773;SDS011;22730;51.980;5.934;2023-08-24T14:38:39;5.35;;;4.85;;
36773;SDS011;22730;51.980;5.934;2023-08-24T14:41:05;3.97;;;3.67;;
36773;SDS011;22730;51.980;5.934;2023-08-24T14:43:35;3.72;;;3.38;;
36773;SDS011;22730;51.980;5.934;2023-08-24T14:46:01;3.33;;;3.03;;
36773;SDS011;22730;51.980;5.934;2023-08-24T14:48:28;3.78;;;3.47;;
36773;SDS011;22730;51.980;5.934;2023-08-24T14:50:54;3.67;;;3.20;;
36773;SDS011;22730;51.980;5.934;2023-08-24T14:53:22;2.88;;;2.67;;
36773;SDS011;22730;51.980;5.934;2023-08-24T14:55:49;3.58;;;2.63;;
36773;SDS011;22730;51.980;5.934;2023-08-24T14:58:15;3.00;;;2.80;;
36773;SDS011;22730;51.980;5.934;2023-08-24T15:00:41;2.92;;;2.65;;
36773;SDS011;22730;51.980;5.934;2023-08-24T15:03:08;3.22;;;2.92;;
36773;SDS011;22730;51.980;5.934;2023-08-24T15:05:41;2.55;;;2.35;;
36773;SDS011;22730;51.980;5.934;2023-08-24T15:08:09;3.03;;;2.83;;
36773;SDS011;22730;51.980;5.934;2023-08-24T15:10:36;2.92;;;2.67;;
36773;SDS011;22730;51.980;5.934;2023-08-24T15:13:02;3.45;;;2.53;;
36773;SDS011;22730;51.980;5.934;2023-08-24T15:15:28;2.80;;;2.60;;